createdAt,value
2019-01-26T00:01:37.760Z,89.87
2019-01-26T00:04:06.850Z,90.13
2019-01-26T00:06:35.764Z,86.07
2019-01-26T00:09:09.741Z,86.03
2019-01-26T00:11:38.819Z,84.47
2019-01-26T00:14:07.818Z,74.43
2019-01-26T00:16:36.768Z,72.63
2019-01-26T00:19:05.744Z,74.63
2019-01-26T00:21:34.738Z,67.90
2019-01-26T00:24:03.679Z,69.93
2019-01-26T00:26:36.385Z,72.13
2019-01-26T00:29:03.366Z,65.60
2019-01-26T00:31:32.251Z,68.07
2019-01-26T00:34:01.228Z,66.47
2019-01-26T00:36:30.209Z,68.03
2019-01-26T00:38:59.156Z,69.33
2019-01-26T00:41:28.125Z,70.33
2019-01-26T00:43:56.927Z,71.03
2019-01-26T00:46:28.548Z,69.50
2019-01-26T00:48:56.539Z,74.37
2019-01-26T00:51:25.435Z,72.47
2019-01-26T00:53:54.321Z,76.10
2019-01-26T00:56:23.295Z,79.30
2019-01-26T00:58:52.298Z,69.30
2019-01-26T01:01:21.238Z,83.20
2019-01-26T01:03:50.203Z,75.97
2019-01-26T01:06:19.087Z,80.67
2019-01-26T01:08:48.128Z,75.83
2019-01-26T01:11:17.152Z,79.37
2019-01-26T01:13:46.061Z,83.97
2019-01-26T01:16:15.019Z,79.10
2019-01-26T01:18:43.942Z,83.80
2019-01-26T01:21:12.812Z,82.53
2019-01-26T01:23:41.789Z,88.53
2019-01-26T01:26:10.607Z,72.80
2019-01-26T01:28:39.531Z,83.73
2019-01-26T01:31:08.537Z,77.23
2019-01-26T01:33:37.662Z,81.03
2019-01-26T01:36:06.582Z,83.90
2019-01-26T01:38:35.461Z,84.67
2019-01-26T01:41:04.446Z,80.07
2019-01-26T01:43:33.432Z,93.17
2019-01-26T01:46:02.342Z,89.73
2019-01-26T01:48:31.283Z,93.27
2019-01-26T01:51:00.329Z,89.43
2019-01-26T01:53:29.262Z,94.90
2019-01-26T01:55:58.244Z,85.27
2019-01-26T01:58:27.146Z,90.83
2019-01-26T02:00:56.162Z,87.53
2019-01-26T02:03:25.002Z,89.07
2019-01-26T02:05:53.887Z,86.30
2019-01-26T02:08:22.837Z,78.27
2019-01-26T02:10:51.712Z,84.90
2019-01-26T02:13:20.635Z,84.43
2019-01-26T02:15:49.594Z,91.20
2019-01-26T02:18:18.577Z,84.90
2019-01-26T02:20:47.540Z,99.07
2019-01-26T02:23:16.532Z,95.73
2019-01-26T02:25:45.380Z,93.93
2019-01-26T02:28:14.244Z,85.33
2019-01-26T02:30:43.193Z,95.17
2019-01-26T02:33:12.052Z,97.13
2019-01-26T02:35:40.914Z,91.50
2019-01-26T02:38:09.815Z,104.90
2019-01-26T02:40:38.714Z,104.03
2019-01-26T02:43:07.603Z,98.70
2019-01-26T02:45:36.490Z,98.87
2019-01-26T02:48:05.379Z,107.97
2019-01-26T02:50:34.294Z,98.83
2019-01-26T02:53:03.214Z,97.73
2019-01-26T02:55:32.248Z,98.97
2019-01-26T02:58:01.185Z,95.63
2019-01-26T03:00:30.663Z,89.73
2019-01-26T03:02:59.493Z,98.50
2019-01-26T03:05:28.454Z,93.90
2019-01-26T03:07:57.341Z,99.80
2019-01-26T03:10:26.317Z,89.47
2019-01-26T03:12:55.201Z,85.77
2019-01-26T03:15:24.695Z,95.93
2019-01-26T03:17:53.620Z,96.60
2019-01-26T03:20:22.655Z,100.13
2019-01-26T03:22:51.533Z,93.90
2019-01-26T03:25:20.441Z,90.97
2019-01-26T03:27:49.515Z,95.23
2019-01-26T03:30:20.577Z,89.33
2019-01-26T03:32:49.466Z,92.37
2019-01-26T03:35:18.364Z,101.07
2019-01-26T03:37:47.353Z,99.23
2019-01-26T03:40:18.268Z,90.97
2019-01-26T03:42:48.409Z,92.33
2019-01-26T03:45:17.388Z,103.00
2019-01-26T03:47:46.357Z,94.03
2019-01-26T03:50:42.753Z,100.43
2019-01-26T03:53:11.774Z,98.50
2019-01-26T03:55:40.747Z,93.53
2019-01-26T03:58:09.689Z,89.30
2019-01-26T04:00:38.652Z,85.03
2019-01-26T04:03:07.647Z,90.43
2019-01-26T04:05:36.639Z,79.33
2019-01-26T04:08:05.617Z,80.37
2019-01-26T04:10:34.541Z,90.73
2019-01-26T04:13:03.503Z,91.07
2019-01-26T04:15:32.398Z,82.70
2019-01-26T04:18:01.278Z,77.67
2019-01-26T04:20:30.221Z,73.50
2019-01-26T04:22:59.222Z,81.13
2019-01-26T04:25:28.088Z,76.93
2019-01-26T04:27:56.987Z,69.77
2019-01-26T04:30:25.975Z,66.70
2019-01-26T04:32:54.959Z,71.17
2019-01-26T04:35:23.872Z,66.13
2019-01-26T04:37:52.758Z,57.30
2019-01-26T04:40:21.741Z,58.10
2019-01-26T04:42:50.636Z,53.33
2019-01-26T04:45:21.685Z,60.37
2019-01-26T04:47:50.619Z,58.90
2019-01-26T04:50:19.940Z,57.37
2019-01-26T04:52:48.830Z,56.07
2019-01-26T04:55:19.308Z,63.53
2019-01-26T04:57:48.248Z,54.77
2019-01-26T05:00:27.949Z,58.27
2019-01-26T05:02:56.909Z,49.43
2019-01-26T05:05:25.911Z,56.33
2019-01-26T05:07:54.802Z,57.43
2019-01-26T05:10:23.987Z,53.67
2019-01-26T05:12:52.870Z,62.37
2019-01-26T05:15:21.778Z,64.50
2019-01-26T05:17:50.749Z,57.83
2019-01-26T05:20:22.165Z,60.17
2019-01-26T05:22:51.158Z,55.10
2019-01-26T05:25:20.015Z,55.83
2019-01-26T05:27:48.911Z,53.80
2019-01-26T05:30:23.744Z,58.33
2019-01-26T05:32:52.723Z,59.33
2019-01-26T05:35:21.692Z,60.23
2019-01-26T05:37:50.698Z,57.33
2019-01-26T05:40:19.763Z,56.10
2019-01-26T05:42:48.610Z,49.50
2019-01-26T05:45:19.355Z,48.50
2019-01-26T05:47:49.624Z,51.70
2019-01-26T05:50:20.473Z,51.20
2019-01-26T05:52:49.374Z,54.97
2019-01-26T05:55:18.362Z,48.43
2019-01-26T05:57:47.337Z,47.70
2019-01-26T06:00:20.830Z,46.23
2019-01-26T06:02:49.814Z,48.00
2019-01-26T06:05:18.763Z,48.90
2019-01-26T06:07:47.753Z,49.97
2019-01-26T06:10:16.757Z,44.77
2019-01-26T06:12:45.731Z,46.13
2019-01-26T06:15:14.802Z,38.67
2019-01-26T06:17:43.783Z,47.60
2019-01-26T06:20:12.922Z,41.17
2019-01-26T06:22:41.820Z,54.37
2019-01-26T06:25:12.137Z,45.27
2019-01-26T06:27:41.106Z,48.20
2019-01-26T06:30:18.634Z,45.00
2019-01-26T06:32:47.516Z,45.40
2019-01-26T06:35:16.621Z,47.53
2019-01-26T06:37:45.611Z,48.97
2019-01-26T06:40:16.342Z,40.17
2019-01-26T06:42:45.316Z,42.63
2019-01-26T06:45:15.840Z,37.27
2019-01-26T06:47:44.826Z,39.07
2019-01-26T06:50:18.138Z,40.00
2019-01-26T06:52:47.143Z,37.13
2019-01-26T06:55:16.145Z,40.17
2019-01-26T06:57:45.027Z,39.63
2019-01-26T07:00:16.299Z,42.57
2019-01-26T07:02:45.202Z,39.40
2019-01-26T07:05:25.980Z,39.73
2019-01-26T07:07:54.914Z,42.40
2019-01-26T07:10:23.802Z,39.83
2019-01-26T07:12:52.802Z,41.50
2019-01-26T07:15:21.751Z,39.57
2019-01-26T07:17:50.610Z,39.07
2019-01-26T07:20:19.575Z,46.73
2019-01-26T07:22:48.653Z,38.27
2019-01-26T07:25:17.589Z,42.10
2019-01-26T07:27:46.577Z,40.27
2019-01-26T07:30:17.499Z,44.20
2019-01-26T07:32:46.510Z,43.27
2019-01-26T07:35:49.004Z,44.27
2019-01-26T07:38:17.885Z,37.70
2019-01-26T07:40:46.781Z,36.47
2019-01-26T07:43:15.675Z,31.60
2019-01-26T07:45:44.577Z,39.43
2019-01-26T07:48:16.967Z,37.30
2019-01-26T07:50:44.191Z,34.67
2019-01-26T07:53:13.070Z,34.27
2019-01-26T07:55:42.047Z,33.70
2019-01-26T07:58:11.033Z,35.63
2019-01-26T08:00:41.246Z,30.77
2019-01-26T08:03:10.416Z,27.50
2019-01-26T08:05:39.389Z,32.23
2019-01-26T08:08:08.314Z,25.67
2019-01-26T08:10:37.211Z,28.93
2019-01-26T08:13:06.382Z,27.57
2019-01-26T08:15:37.116Z,34.97
2019-01-26T08:18:07.655Z,30.97
2019-01-26T08:20:36.533Z,30.80
2019-01-26T08:23:05.655Z,29.73
2019-01-26T08:25:34.611Z,34.17
2019-01-26T08:28:03.700Z,39.10
2019-01-26T08:30:32.665Z,29.07
2019-01-26T08:33:01.668Z,32.20
2019-01-26T08:35:30.556Z,32.00
2019-01-26T08:37:59.470Z,38.63
2019-01-26T08:40:28.467Z,29.57
2019-01-26T08:42:57.377Z,27.33
2019-01-26T08:45:26.248Z,30.07
2019-01-26T08:47:55.145Z,26.57
2019-01-26T08:50:25.570Z,29.77
2019-01-26T08:52:54.586Z,28.57
2019-01-26T08:55:23.556Z,27.63
2019-01-26T08:57:52.548Z,32.17
2019-01-26T09:00:23.663Z,28.57
2019-01-26T09:03:12.030Z,31.47
2019-01-26T09:05:58.153Z,29.07
2019-01-26T09:08:27.152Z,26.83
2019-01-26T09:10:56.224Z,30.70
2019-01-26T09:13:25.173Z,26.53
2019-01-26T09:15:54.178Z,30.97
2019-01-26T09:18:23.177Z,29.40
2019-01-26T09:20:52.147Z,33.60
2019-01-26T09:23:21.157Z,26.50
2019-01-26T09:25:50.052Z,25.93
2019-01-26T09:28:19.362Z,23.67
2019-01-26T09:30:48.248Z,20.77
2019-01-26T09:33:17.286Z,25.70
2019-01-26T09:35:46.182Z,23.67
2019-01-26T09:38:15.128Z,25.17
2019-01-26T09:40:44.988Z,24.30
2019-01-26T09:43:13.905Z,23.10
2019-01-26T09:45:42.980Z,19.17
2019-01-26T09:48:11.959Z,20.90
2019-01-26T09:50:41.964Z,18.53
2019-01-26T09:53:11.037Z,20.77
2019-01-26T09:55:39.990Z,17.67
2019-01-26T09:58:08.924Z,19.13
2019-01-26T10:00:37.897Z,18.03
2019-01-26T10:03:07.152Z,15.40
2019-01-26T10:05:36.112Z,15.53
2019-01-26T10:08:05.310Z,10.20
2019-01-26T10:10:34.171Z,16.00
2019-01-26T10:13:03.319Z,17.17
2019-01-26T10:15:32.388Z,13.87
2019-01-26T10:18:01.379Z,22.97
2019-01-26T10:20:34.148Z,15.93
2019-01-26T10:23:03.136Z,18.03
2019-01-26T10:25:32.100Z,15.20
2019-01-26T10:28:01.098Z,20.73
2019-01-26T10:30:35.218Z,16.27
2019-01-26T10:33:04.255Z,20.00
2019-01-26T10:35:56.816Z,19.03
2019-01-26T10:38:25.848Z,19.37
2019-01-26T10:41:22.908Z,19.80
2019-01-26T10:43:52.793Z,18.30
2019-01-26T10:46:21.734Z,19.47
2019-01-26T10:48:51.670Z,21.90
2019-01-26T10:51:20.606Z,26.73
2019-01-26T10:54:07.597Z,20.57
2019-01-26T10:56:36.499Z,24.80
2019-01-26T10:59:32.804Z,27.00
2019-01-26T11:02:01.735Z,19.93
2019-01-26T11:04:30.643Z,35.17
2019-01-26T11:06:59.609Z,43.47
2019-01-26T11:09:28.631Z,37.63
2019-01-26T11:11:57.570Z,48.30
2019-01-26T11:14:26.574Z,36.57
2019-01-26T11:16:55.554Z,28.87
2019-01-26T11:19:24.551Z,34.70
2019-01-26T11:21:53.547Z,35.20
2019-01-26T11:24:22.601Z,33.47
2019-01-26T11:26:51.494Z,26.57
2019-01-26T11:29:20.465Z,29.17
2019-01-26T11:31:49.494Z,24.60
2019-01-26T11:34:21.322Z,24.80
2019-01-26T11:36:50.296Z,26.77
2019-01-26T11:39:19.203Z,27.00
2019-01-26T11:41:48.202Z,22.83
2019-01-26T11:44:17.135Z,27.10
2019-01-26T11:46:52.947Z,31.47
2019-01-26T11:49:21.817Z,26.17
2019-01-26T11:52:09.798Z,25.40
2019-01-26T11:54:59.101Z,22.00
2019-01-26T11:57:31.005Z,21.73
2019-01-26T12:00:28.009Z,19.57
2019-01-26T12:03:28.403Z,25.13
2019-01-26T12:06:14.844Z,19.33
2019-01-26T12:08:43.852Z,20.80
2019-01-26T12:11:12.873Z,24.37
2019-01-26T12:13:41.904Z,25.33
2019-01-26T12:16:10.903Z,26.47
2019-01-26T12:18:39.843Z,28.80
2019-01-26T12:21:08.818Z,29.13
2019-01-26T12:23:37.756Z,19.63
2019-01-26T12:26:06.840Z,26.33
2019-01-26T12:28:35.815Z,22.70
2019-01-26T12:31:04.892Z,25.73
2019-01-26T12:33:33.937Z,29.00
2019-01-26T12:36:02.800Z,33.03
2019-01-26T12:38:31.769Z,22.93
2019-01-26T12:41:00.758Z,35.90
2019-01-26T12:43:30.166Z,26.80
2019-01-26T12:45:59.209Z,25.73
2019-01-26T12:48:28.209Z,21.43
2019-01-26T12:50:57.251Z,24.53
2019-01-26T12:53:26.147Z,21.03
2019-01-26T12:55:55.118Z,32.30
2019-01-26T12:58:24.122Z,33.27
2019-01-26T13:00:53.160Z,23.70
2019-01-26T13:03:22.210Z,33.13
2019-01-26T13:05:51.213Z,53.60
2019-01-26T13:08:20.099Z,40.93
2019-01-26T13:10:52.131Z,27.70
2019-01-26T13:13:21.300Z,20.73
2019-01-26T13:15:50.306Z,23.83
2019-01-26T13:18:19.361Z,22.10
2019-01-26T13:20:48.385Z,20.20
2019-01-26T13:23:17.284Z,22.13
2019-01-26T13:25:46.213Z,25.67
2019-01-26T13:28:15.188Z,18.37
2019-01-26T13:30:44.123Z,21.00
2019-01-26T13:33:13.021Z,39.83
2019-01-26T13:35:41.931Z,17.97
2019-01-26T13:38:11.007Z,20.77
2019-01-26T13:40:39.982Z,17.57
2019-01-26T13:43:08.968Z,17.83
2019-01-26T13:45:38.047Z,20.50
2019-01-26T13:48:07.035Z,36.73
2019-01-26T13:50:36.193Z,42.90
2019-01-26T13:53:05.353Z,35.93
2019-01-26T13:55:34.281Z,44.53
2019-01-26T13:58:03.339Z,26.17
2019-01-26T14:00:32.699Z,21.03
2019-01-26T14:03:03.163Z,36.10
2019-01-26T14:05:32.160Z,34.07
2019-01-26T14:08:01.165Z,23.23
2019-01-26T14:13:58.546Z,22.40
2019-01-26T14:17:27.583Z,23.27
2019-01-26T14:19:56.527Z,22.07
2019-01-26T14:22:25.489Z,20.93
2019-01-26T14:24:54.432Z,18.03
2019-01-26T14:27:23.427Z,22.03
2019-01-26T14:29:52.480Z,24.40
2019-01-26T14:32:21.542Z,28.60
2019-01-26T14:35:41.920Z,40.50
2019-01-26T14:38:10.839Z,45.63
2019-01-26T14:44:45.134Z,24.37
2019-01-26T14:47:14.115Z,31.33
2019-01-26T14:49:43.204Z,25.73
2019-01-26T14:52:12.308Z,23.97
2019-01-26T14:54:41.311Z,31.60
2019-01-26T14:57:10.278Z,26.23
2019-01-26T14:59:39.282Z,23.80
2019-01-26T15:02:08.425Z,26.77
2019-01-26T15:04:37.374Z,23.53
2019-01-26T15:07:06.278Z,28.33
2019-01-26T15:09:35.334Z,32.67
2019-01-26T15:12:04.388Z,29.63
2019-01-26T15:14:33.405Z,36.83
2019-01-26T15:17:02.499Z,40.43
2019-01-26T15:19:31.419Z,31.53
2019-01-26T15:22:00.419Z,32.87
2019-01-26T15:24:29.482Z,36.03
2019-01-26T15:30:29.443Z,46.43
2019-01-26T15:32:58.815Z,54.37
2019-01-26T15:35:27.863Z,45.27
2019-01-26T15:37:56.921Z,40.47
2019-01-26T15:40:25.890Z,42.10
2019-01-26T15:42:54.991Z,40.10
2019-01-26T15:45:29.974Z,39.03
2019-01-26T15:47:58.969Z,37.43
2019-01-26T15:50:28.017Z,35.40
2019-01-26T15:52:57.024Z,31.90
2019-01-26T15:55:26.574Z,34.57
2019-01-26T15:58:05.611Z,37.23
2019-01-26T16:00:37.097Z,34.57
2019-01-26T16:03:06.154Z,41.33
2019-01-26T16:05:38.158Z,30.10
2019-01-26T16:08:07.842Z,34.87
2019-01-26T16:10:36.860Z,52.60
2019-01-26T16:13:06.164Z,41.37
2019-01-26T16:15:35.562Z,48.90
2019-01-26T16:18:05.974Z,50.37
2019-01-26T16:20:35.020Z,48.70
2019-01-26T16:23:09.426Z,62.87
2019-01-26T16:25:34.952Z,64.27
2019-01-26T16:28:03.952Z,48.07
2019-01-26T16:30:33.296Z,57.63
2019-01-26T16:33:59.454Z,48.33
2019-01-26T16:36:28.501Z,39.17
2019-01-26T16:38:57.495Z,66.93
2019-01-26T16:41:26.539Z,55.70
2019-01-26T16:43:55.555Z,69.80
2019-01-26T16:46:24.499Z,47.63
2019-01-26T16:48:54.087Z,47.20
2019-01-26T16:51:23.072Z,45.03
2019-01-26T16:53:52.016Z,29.33
2019-01-26T16:56:21.012Z,42.37
2019-01-26T16:58:50.019Z,52.63
2019-01-26T17:02:16.829Z,37.50
2019-01-26T17:04:45.714Z,35.80
2019-01-26T17:07:14.768Z,34.77
2019-01-26T17:09:43.832Z,41.97
2019-01-26T17:12:12.874Z,47.07
2019-01-26T17:14:41.919Z,31.07
2019-01-26T17:17:10.946Z,30.53
2019-01-26T17:19:40.001Z,31.97
2019-01-26T17:22:09.040Z,26.70
2019-01-26T17:24:38.034Z,26.70
2019-01-26T17:27:07.036Z,20.00
2019-01-26T17:29:36.012Z,28.60
2019-01-26T17:32:05.013Z,27.10
2019-01-26T17:34:33.979Z,27.10
2019-01-26T17:37:02.992Z,19.87
2019-01-26T17:39:32.114Z,20.73
2019-01-26T17:42:01.035Z,21.50
2019-01-26T17:44:30.115Z,19.23
2019-01-26T17:46:59.272Z,19.47
2019-01-26T17:49:28.707Z,17.07
2019-01-26T17:55:26.448Z,16.47
2019-01-26T17:57:55.896Z,16.87
2019-01-26T18:00:43.235Z,20.87
2019-01-26T18:03:12.852Z,19.73
2019-01-26T18:05:43.069Z,20.07
2019-01-26T18:08:12.836Z,20.50
2019-01-26T18:10:42.535Z,23.03
2019-01-26T18:13:12.539Z,23.37
2019-01-26T18:15:44.105Z,23.40
2019-01-26T18:18:13.430Z,26.33
2019-01-26T18:20:48.930Z,25.07
2019-01-26T18:23:15.128Z,27.00
2019-01-26T18:25:45.454Z,26.80
2019-01-26T18:28:14.628Z,30.93
2019-01-26T18:30:43.732Z,25.20
2019-01-26T18:33:12.729Z,25.40
2019-01-26T18:35:42.337Z,24.27
2019-01-26T18:38:11.337Z,25.30
2019-01-26T18:40:40.318Z,29.73
2019-01-26T18:43:09.271Z,32.50
2019-01-26T18:45:38.524Z,35.03
2019-01-26T18:48:07.977Z,34.93
2019-01-26T18:50:39.481Z,34.40
2019-01-26T18:53:09.637Z,32.90
2019-01-26T18:55:39.804Z,34.93
2019-01-26T18:58:08.871Z,33.97
2019-01-26T19:00:43.502Z,31.67
2019-01-26T19:03:36.706Z,31.13
2019-01-26T19:06:06.581Z,28.90
2019-01-26T19:08:35.605Z,31.17
2019-01-26T19:11:04.918Z,26.27
2019-01-26T19:13:33.922Z,28.33
2019-01-26T19:16:02.897Z,27.63
2019-01-26T19:18:31.877Z,29.30
2019-01-26T19:21:03.349Z,26.63
2019-01-26T19:23:31.502Z,28.80
2019-01-26T19:26:00.446Z,24.97
2019-01-26T19:28:29.511Z,24.20
2019-01-26T19:30:58.608Z,22.63
2019-01-26T19:33:27.637Z,27.83
2019-01-26T19:35:56.658Z,24.70
2019-01-26T19:38:25.847Z,22.00
2019-01-26T19:40:54.845Z,20.77
2019-01-26T19:43:24.892Z,26.90
2019-01-26T19:45:53.777Z,22.47
2019-01-26T19:48:22.885Z,21.83
2019-01-26T19:50:51.841Z,25.10
2019-01-26T19:53:20.872Z,22.80
2019-01-26T19:55:50.598Z,23.87
2019-01-26T19:58:20.099Z,25.37
2019-01-26T20:00:49.155Z,23.73
2019-01-26T20:03:18.101Z,26.90
2019-01-26T20:05:48.177Z,27.07
2019-01-26T20:08:17.263Z,26.20
2019-01-26T20:10:46.285Z,25.47
2019-01-26T20:13:15.390Z,29.20
2019-01-26T20:15:44.621Z,28.97
2019-01-26T20:18:13.680Z,28.73
2019-01-26T20:20:42.607Z,24.80
2019-01-26T20:23:11.527Z,25.93
2019-01-26T20:25:40.422Z,25.17
2019-01-26T20:28:09.444Z,22.27
2019-01-26T20:30:38.639Z,22.70
2019-01-26T20:33:07.703Z,22.03
2019-01-26T20:35:36.625Z,28.50
2019-01-26T20:38:05.650Z,23.93
2019-01-26T20:40:34.928Z,25.17
2019-01-26T20:43:03.928Z,26.60
2019-01-26T20:45:32.960Z,24.83
2019-01-26T20:48:01.977Z,22.60
2019-01-26T20:50:31.133Z,24.50
2019-01-26T20:53:06.433Z,24.17
2019-01-26T20:55:36.333Z,27.07
2019-01-26T20:58:26.424Z,29.33
2019-01-26T21:00:55.446Z,27.37
2019-01-26T21:03:24.482Z,27.10
2019-01-26T21:05:53.617Z,27.67
2019-01-26T21:08:22.602Z,27.10
2019-01-26T21:10:51.587Z,27.10
2019-01-26T21:13:20.513Z,27.87
2019-01-26T21:15:49.603Z,27.30
2019-01-26T21:18:18.603Z,30.43
2019-01-26T21:20:47.580Z,28.90
2019-01-26T21:23:16.730Z,32.27
2019-01-26T21:25:45.707Z,32.77
2019-01-26T21:28:14.783Z,31.90
2019-01-26T21:31:23.077Z,33.77
2019-01-26T21:33:52.072Z,31.07
2019-01-26T21:36:21.140Z,28.87
2019-01-26T21:38:50.241Z,29.47
2019-01-26T21:41:19.245Z,31.10
2019-01-26T21:43:48.296Z,31.13
2019-01-26T21:46:17.307Z,33.13
2019-01-26T21:48:46.282Z,30.87
2019-01-26T21:51:15.322Z,30.23
2019-01-26T21:53:44.223Z,29.80
2019-01-26T21:56:13.228Z,30.93
2019-01-26T21:58:42.158Z,29.40
2019-01-26T22:01:11.138Z,30.10
2019-01-26T22:03:40.169Z,31.47
2019-01-26T22:06:09.161Z,29.40
2019-01-26T22:08:38.160Z,29.20
2019-01-26T22:11:07.175Z,30.10
2019-01-26T22:13:36.210Z,29.90
2019-01-26T22:16:05.470Z,29.63
2019-01-26T22:18:34.429Z,28.97
2019-01-26T22:21:03.385Z,29.67
2019-01-26T22:23:32.384Z,27.80
2019-01-26T22:26:01.380Z,30.40
2019-01-26T22:28:30.417Z,32.07
2019-01-26T22:30:59.337Z,30.30
2019-01-26T22:33:28.219Z,29.67
2019-01-26T22:35:57.179Z,28.20
2019-01-26T22:38:26.205Z,30.17
2019-01-26T22:40:55.139Z,27.23
2019-01-26T22:43:24.066Z,27.13
2019-01-26T22:45:53.219Z,27.90
2019-01-26T22:48:23.589Z,29.00
2019-01-26T22:50:52.549Z,27.40
2019-01-26T22:53:21.429Z,26.43
2019-01-26T22:55:50.388Z,28.17
2019-01-26T22:58:19.316Z,29.40
2019-01-26T23:00:54.255Z,27.63
2019-01-26T23:03:30.581Z,31.60
2019-01-26T23:06:25.614Z,33.77
2019-01-26T23:08:54.892Z,36.83
2019-01-26T23:12:03.722Z,35.47
2019-01-26T23:14:51.853Z,40.17
2019-01-26T23:21:10.289Z,37.73
2019-01-26T23:24:19.520Z,36.80
2019-01-26T23:27:14.257Z,37.33
2019-01-26T23:30:31.673Z,39.23
2019-01-26T23:33:00.702Z,43.90
2019-01-26T23:35:29.610Z,47.93
2019-01-26T23:37:58.551Z,46.90
2019-01-26T23:40:27.547Z,45.43
2019-01-26T23:43:09.081Z,49.53
2019-01-26T23:45:38.060Z,43.37
2019-01-26T23:48:06.994Z,41.83
2019-01-26T23:50:35.909Z,44.27
2019-01-26T23:53:05.289Z,42.73
2019-01-26T23:55:34.205Z,50.67
2019-01-26T23:58:03.198Z,48.07
